Time;durP1;ratioP1;P1;durP2;ratioP2;P2;SDS_P1;SDS_P2;PMS_P1;PMS_P2;Temp;Humidity;BMP_temperature;BMP_pressure;BME280_temperature;BME280_humidity;BME280_pressure;Samples;Min_cycle;Max_cycle;Signal;HPM_P1;HPM_P2
2022/10/01 00:01:56;;;;;;;11.57;10.40;;;;;;;;;;5002597;28;89278;-75
2022/10/01 00:04:23;;;;;;;10.32;9.27;;;;;;;;;;4998045;28;88882;-76
2022/10/01 00:06:49;;;;;;;11.23;8.52;;;;;;;;;;4997400;28;88515;-76
2022/10/01 00:09:15;;;;;;;16.90;8.85;;;;;;;;;;4998590;28;89221;-76
2022/10/01 00:11:41;;;;;;;10.63;9.48;;;;;;;;;;4998998;28;88232;-75
2022/10/01 00:14:08;;;;;;;9.40;8.43;;;;;;;;;;4998225;28;89398;-75
2022/10/01 00:16:34;;;;;;;13.77;9.20;;;;;;;;;;4998395;28;89831;-75
2022/10/01 00:19:01;;;;;;;13.70;10.27;;;;;;;;;;5014623;28;88082;-76
2022/10/01 00:21:28;;;;;;;12.38;10.43;;;;;;;;;;5019588;28;89340;-74
2022/10/01 00:23:55;;;;;;;16.75;11.85;;;;;;;;;;5000588;28;90967;-75
2022/10/01 00:26:25;;;;;;;11.98;10.82;;;;;;;;;;4997206;28;90343;-74
2022/10/01 00:28:53;;;;;;;10.98;10.05;;;;;;;;;;4996932;28;88967;-74
2022/10/01 00:31:20;;;;;;;12.52;10.82;;;;;;;;;;4997049;28;90950;-74
2022/10/01 00:33:47;;;;;;;16.83;11.50;;;;;;;;;;4996964;28;89391;-75
2022/10/01 00:36:13;;;;;;;10.35;9.40;;;;;;;;;;5014280;28;89092;-75
2022/10/01 00:38:40;;;;;;;12.85;11.15;;;;;;;;;;5000345;28;90055;-74
2022/10/01 00:41:07;;;;;;;12.98;10.70;;;;;;;;;;4996899;28;90620;-75
2022/10/01 00:43:36;;;;;;;13.48;11.98;;;;;;;;;;4999602;28;89712;-74
2022/10/01 00:46:14;;;;;;;11.85;9.85;;;;;;;;;;4996045;28;90371;-74
2022/10/01 00:48:48;;;;;;;16.45;12.10;;;;;;;;;;4997639;28;89924;-75
2022/10/01 00:51:15;;;;;;;12.35;11.10;;;;;;;;;;4997623;28;89088;-74
2022/10/01 00:53:42;;;;;;;12.57;11.50;;;;;;;;;;4997287;28;89571;-75
2022/10/01 00:56:10;;;;;;;11.73;10.35;;;;;;;;;;4995973;28;89735;-75
2022/10/01 00:58:37;;;;;;;21.42;12.52;;;;;;;;;;4996682;28;89956;-76
2022/10/01 01:01:04;;;;;;;18.10;12.10;;;;;;;;;;4996860;28;89626;-76
2022/10/01 01:03:30;;;;;;;14.13;11.43;;;;;;;;;;4996230;28;88873;-76
2022/10/01 01:05:56;;;;;;;12.38;11.38;;;;;;;;;;4999580;28;91004;-76
2022/10/01 01:08:23;;;;;;;10.75;9.57;;;;;;;;;;4997376;28;89848;-76
2022/10/01 01:10:56;;;;;;;11.32;10.18;;;;;;;;;;4996432;28;90511;-76
2022/10/01 01:13:25;;;;;;;11.63;10.18;;;;;;;;;;4997099;28;90207;-76
2022/10/01 01:15:52;;;;;;;13.27;9.07;;;;;;;;;;4996484;28;88981;-76
2022/10/01 01:18:31;;;;;;;10.57;9.68;;;;;;;;;;4996674;28;90426;-76
2022/10/01 01:21:03;;;;;;;10.15;8.60;;;;;;;;;;4997051;28;87926;-76
2022/10/01 01:23:30;;;;;;;;;;;;;;;;;;4996475;28;87932;-77
2022/10/01 01:26:01;;;;;;;8.85;7.95;;;;;;;;;;5005215;28;118898;-75
2022/10/01 01:28:38;;;;;;;11.90;8.80;;;;;;;;;;5007259;28;89656;-75
2022/10/01 01:31:09;;;;;;;9.80;8.80;;;;;;;;;;4996545;28;88757;-76
2022/10/01 01:33:37;;;;;;;11.37;9.10;;;;;;;;;;4997733;28;89492;-75
2022/10/01 01:36:09;;;;;;;8.57;7.00;;;;;;;;;;4996522;28;90670;-75
2022/10/01 01:38:41;;;;;;;10.13;7.75;;;;;;;;;;4996636;28;88307;-76
2022/10/01 01:41:08;;;;;;;7.80;7.10;;;;;;;;;;4997143;28;88384;-76
2022/10/01 01:43:37;;;;;;;8.15;7.35;;;;;;;;;;5009975;28;89947;-76
2022/10/01 01:46:04;;;;;;;9.10;7.55;;;;;;;;;;4998133;28;88772;-76
2022/10/01 01:48:35;;;;;;;7.70;7.10;;;;;;;;;;4997350;28;88560;-76
2022/10/01 01:51:05;;;;;;;8.60;7.80;;;;;;;;;;5000079;28;87950;-76
2022/10/01 01:53:31;;;;;;;7.25;6.55;;;;;;;;;;4997134;28;89412;-76
2022/10/01 01:55:59;;;;;;;9.65;7.03;;;;;;;;;;4996869;28;88871;-76
2022/10/01 01:58:28;;;;;;;7.18;6.57;;;;;;;;;;4997348;28;88182;-76
2022/10/01 02:00:54;;;;;;;7.30;6.80;;;;;;;;;;5011347;28;89034;-75
2022/10/01 02:03:22;;;;;;;7.32;6.65;;;;;;;;;;5016716;28;89697;-76
2022/10/01 02:06:01;;;;;;;7.68;6.97;;;;;;;;;;5016340;28;88778;-75
2022/10/01 02:08:46;;;;;;;6.05;5.50;;;;;;;;;;5017430;28;88011;-76
2022/10/01 02:11:19;;;;;;;5.95;5.45;;;;;;;;;;5016798;28;89717;-76
2022/10/01 02:13:58;;;;;;;5.60;5.07;;;;;;;;;;5017476;28;88004;-76
2022/10/01 02:16:44;;;;;;;5.35;5.05;;;;;;;;;;5000074;28;89937;-75
2022/10/01 02:19:16;;;;;;;5.13;4.72;;;;;;;;;;5017105;28;88751;-75
2022/10/01 02:22:05;;;;;;;5.30;4.90;;;;;;;;;;5016040;28;88445;-75
2022/10/01 02:24:36;;;;;;;8.38;5.65;;;;;;;;;;5011005;28;89509;-76
2022/10/01 02:27:07;;;;;;;6.55;5.40;;;;;;;;;;5015330;28;88840;-76
2022/10/01 02:29:34;;;;;;;5.13;4.82;;;;;;;;;;5017906;28;89431;-75
2022/10/01 02:32:01;;;;;;;5.25;4.75;;;;;;;;;;5020127;28;89805;-75
2022/10/01 02:34:28;;;;;;;7.78;5.93;;;;;;;;;;5021404;28;88035;-75
2022/10/01 02:36:55;;;;;;;5.63;5.28;;;;;;;;;;5016324;28;89869;-75
2022/10/01 02:39:23;;;;;;;5.63;4.70;;;;;;;;;;5000216;28;88639;-75
2022/10/01 02:41:50;;;;;;;4.18;3.88;;;;;;;;;;4999372;28;89391;-75
2022/10/01 02:44:20;;;;;;;4.03;3.72;;;;;;;;;;4999901;28;88794;-75
2022/10/01 02:46:52;;;;;;;3.20;3.10;;;;;;;;;;4999803;28;88557;-76
2022/10/01 02:49:19;;;;;;;3.58;3.28;;;;;;;;;;4999101;28;89441;-78
2022/10/01 02:51:45;;;;;;;4.13;3.83;;;;;;;;;;4999814;28;90616;-78
2022/10/01 02:54:21;;;;;;;4.03;3.72;;;;;;;;;;4999803;28;88040;-76
2022/10/01 02:59:32;;;;;;;2.85;2.75;;;;;;;;;;4999978;28;88760;-77
2022/10/01 03:01:58;;;;;;;3.83;3.55;;;;;;;;;;4998842;28;89945;-76
2022/10/01 03:04:25;;;;;;;3.60;3.28;;;;;;;;;;4999958;28;88750;-76
2022/10/01 03:06:52;;;;;;;3.22;3.03;;;;;;;;;;4999914;28;89112;-78
2022/10/01 03:09:18;;;;;;;3.75;3.42;;;;;;;;;;4999762;28;89588;-78
2022/10/01 03:11:44;;;;;;;3.10;3.00;;;;;;;;;;4999709;28;89873;-78
2022/10/01 03:14:11;;;;;;;3.80;3.60;;;;;;;;;;4999106;28;89065;-77
2022/10/01 03:16:37;;;;;;;3.83;3.58;;;;;;;;;;4997881;28;88711;-77
2022/10/01 03:19:03;;;;;;;3.40;3.28;;;;;;;;;;5002162;28;89018;-77
2022/10/01 03:21:29;;;;;;;4.18;3.88;;;;;;;;;;4999054;28;89506;-77
2022/10/01 03:23:56;;;;;;;6.22;3.95;;;;;;;;;;4998511;28;89942;-77
2022/10/01 03:26:23;;;;;;;5.07;4.70;;;;;;;;;;4999094;28;88745;-77
2022/10/01 03:28:49;;;;;;;4.00;3.78;;;;;;;;;;4998009;28;89816;-77
2022/10/01 03:31:15;;;;;;;3.67;3.47;;;;;;;;;;4998295;28;89753;-77
2022/10/01 03:33:42;;;;;;;4.53;4.13;;;;;;;;;;4999897;28;87827;-77
2022/10/01 03:36:08;;;;;;;7.00;4.35;;;;;;;;;;4999091;28;88691;-76
2022/10/01 03:38:34;;;;;;;4.55;4.25;;;;;;;;;;4998391;28;89734;-77
2022/10/01 03:41:01;;;;;;;4.80;4.50;;;;;;;;;;5001389;28;88678;-77
2022/10/01 03:43:27;;;;;;;4.95;4.60;;;;;;;;;;5018867;28;89602;-77
2022/10/01 03:45:55;;;;;;;4.55;4.15;;;;;;;;;;5018589;28;88043;-76
2022/10/01 03:48:22;;;;;;;5.68;5.13;;;;;;;;;;5019265;28;89577;-77
2022/10/01 03:50:53;;;;;;;4.57;4.25;;;;;;;;;;5018889;28;89915;-77
2022/10/01 03:53:20;;;;;;;4.13;3.92;;;;;;;;;;5018065;28;88024;-77
2022/10/01 03:55:46;;;;;;;5.20;4.80;;;;;;;;;;5005362;28;89443;-77
2022/10/01 03:58:12;;;;;;;6.20;5.70;;;;;;;;;;4999052;28;88046;-77
2022/10/01 04:00:39;;;;;;;5.65;5.25;;;;;;;;;;4998914;28;89116;-77
2022/10/01 04:03:05;;;;;;;5.70;5.30;;;;;;;;;;5001527;28;89877;-77
2022/10/01 04:05:32;;;;;;;6.18;5.78;;;;;;;;;;4997607;28;88780;-76
2022/10/01 04:07:58;;;;;;;5.18;4.78;;;;;;;;;;4998231;28;90292;-77
2022/10/01 04:10:24;;;;;;;6.97;5.93;;;;;;;;;;4998584;28;91169;-76
2022/10/01 04:12:51;;;;;;;7.00;6.53;;;;;;;;;;4998055;28;88236;-77
2022/10/01 04:15:17;;;;;;;7.68;6.97;;;;;;;;;;5000258;28;89524;-76
2022/10/01 04:17:44;;;;;;;6.53;6.13;;;;;;;;;;5018315;28;89903;-76
2022/10/01 04:20:11;;;;;;;5.72;5.43;;;;;;;;;;5017672;28;88839;-77
2022/10/01 04:22:39;;;;;;;6.70;6.13;;;;;;;;;;5021668;28;89926;-77
2022/10/01 04:25:06;;;;;;;6.13;5.72;;;;;;;;;;5018273;28;88053;-77
2022/10/01 04:27:32;;;;;;;7.32;6.82;;;;;;;;;;5017694;28;88593;-77
2022/10/01 04:29:58;;;;;;;7.28;6.65;;;;;;;;;;5017515;28;89439;-76
2022/10/01 04:32:25;;;;;;;7.55;7.13;;;;;;;;;;5012162;28;89071;-76
2022/10/01 04:34:51;;;;;;;8.32;7.60;;;;;;;;;;5017420;28;88456;-76
2022/10/01 04:37:18;;;;;;;7.78;7.18;;;;;;;;;;5010515;28;89694;-76
2022/10/01 04:39:44;;;;;;;8.32;7.72;;;;;;;;;;4998421;28;88742;-76
2022/10/01 04:42:14;;;;;;;8.27;7.72;;;;;;;;;;4997579;28;89273;-76
2022/10/01 04:44:40;;;;;;;11.55;8.48;;;;;;;;;;5000756;28;89951;-76
2022/10/01 04:47:07;;;;;;;9.18;8.38;;;;;;;;;;4998230;28;89510;-76
2022/10/01 04:49:33;;;;;;;8.90;8.10;;;;;;;;;;4997058;28;89490;-76
2022/10/01 04:52:00;;;;;;;9.10;8.50;;;;;;;;;;4994750;28;88669;-76
2022/10/01 04:54:26;;;;;;;9.68;8.88;;;;;;;;;;4996979;28;89034;-76
2022/10/01 04:56:52;;;;;;;10.18;9.32;;;;;;;;;;4997513;28;90242;-76
2022/10/01 04:59:19;;;;;;;10.27;9.55;;;;;;;;;;4996745;28;88046;-76
2022/10/01 05:01:45;;;;;;;9.90;8.98;;;;;;;;;;4996543;28;91167;-76
2022/10/01 05:04:12;;;;;;;10.55;9.65;;;;;;;;;;4994229;28;89613;-76
2022/10/01 05:06:40;;;;;;;13.32;9.68;;;;;;;;;;4999519;28;88770;-77
2022/10/01 05:09:07;;;;;;;11.80;10.88;;;;;;;;;;4989931;28;89353;-77
2022/10/01 05:11:33;;;;;;;11.73;10.82;;;;;;;;;;4993244;28;89039;-79
2022/10/01 05:14:00;;;;;;;10.10;9.30;;;;;;;;;;4992655;28;91480;-77
2022/10/01 05:16:26;;;;;;;12.07;11.07;;;;;;;;;;4995045;28;89455;-78
2022/10/01 05:18:53;;;;;;;10.43;9.75;;;;;;;;;;4990116;28;89563;-77
2022/10/01 05:21:20;;;;;;;11.55;10.65;;;;;;;;;;4995654;28;90486;-78
2022/10/01 05:23:46;;;;;;;11.77;10.88;;;;;;;;;;4992169;28;89583;-77
2022/10/01 05:26:12;;;;;;;11.80;10.90;;;;;;;;;;4995995;28;90759;-78
2022/10/01 05:28:43;;;;;;;13.90;12.50;;;;;;;;;;4999488;28;90397;-78
2022/10/01 05:31:10;;;;;;;13.30;12.07;;;;;;;;;;4995833;28;89845;-77
2022/10/01 05:33:36;;;;;;;13.75;12.35;;;;;;;;;;4996573;28;89373;-78
2022/10/01 05:36:05;;;;;;;14.70;13.00;;;;;;;;;;4996482;28;88879;-78
2022/10/01 05:38:35;;;;;;;13.32;12.30;;;;;;;;;;4995867;28;91143;-78
2022/10/01 05:41:02;;;;;;;15.80;13.80;;;;;;;;;;4996315;28;89698;-78
2022/10/01 05:43:30;;;;;;;15.57;14.23;;;;;;;;;;4995371;28;90637;-78
2022/10/01 05:46:00;;;;;;;15.50;13.75;;;;;;;;;;4995246;28;89651;-78
2022/10/01 05:48:27;;;;;;;18.40;14.20;;;;;;;;;;4996429;28;89267;-77
2022/10/01 05:50:53;;;;;;;14.63;13.35;;;;;;;;;;4998181;28;89372;-78
2022/10/01 05:53:21;;;;;;;17.30;15.63;;;;;;;;;;4994710;28;89580;-78
2022/10/01 05:55:47;;;;;;;19.35;16.83;;;;;;;;;;4992896;28;89823;-79
2022/10/01 05:58:14;;;;;;;17.80;15.98;;;;;;;;;;4995322;28;91322;-79
2022/10/01 06:00:40;;;;;;;17.98;16.15;;;;;;;;;;4995648;28;91132;-78
2022/10/01 06:03:07;;;;;;;20.40;16.42;;;;;;;;;;4995858;28;90223;-78
2022/10/01 06:05:34;;;;;;;18.20;16.52;;;;;;;;;;4996961;28;89736;-78
2022/10/01 06:08:03;;;;;;;17.55;15.93;;;;;;;;;;4999048;28;90300;-78
2022/10/01 06:10:29;;;;;;;18.50;16.58;;;;;;;;;;4996751;28;89637;-78
2022/10/01 06:13:00;;;;;;;20.00;17.30;;;;;;;;;;5001970;28;91219;-78
2022/10/01 06:15:27;;;;;;;18.58;16.33;;;;;;;;;;4999693;28;89586;-78
2022/10/01 06:17:53;;;;;;;18.52;16.25;;;;;;;;;;4999275;28;90964;-78
2022/10/01 06:20:20;;;;;;;17.67;15.77;;;;;;;;;;4998528;28;90309;-77
2022/10/01 06:22:56;;;;;;;18.70;16.70;;;;;;;;;;4999181;28;89945;-79
2022/10/01 06:25:23;;;;;;;17.13;14.40;;;;;;;;;;4999786;28;90881;-78
2022/10/01 06:27:56;;;;;;;15.00;13.40;;;;;;;;;;4998461;28;89252;-77
2022/10/01 06:30:27;;;;;;;18.73;14.48;;;;;;;;;;4999542;28;89615;-78
2022/10/01 06:33:02;;;;;;;18.88;15.82;;;;;;;;;;5002119;28;90997;-78
2022/10/01 06:35:29;;;;;;;18.63;15.55;;;;;;;;;;4999374;28;89968;-77
2022/10/01 06:37:56;;;;;;;21.17;15.02;;;;;;;;;;4999238;28;89809;-78
2022/10/01 06:40:22;;;;;;;16.30;14.13;;;;;;;;;;4998629;28;89605;-77
2022/10/01 06:42:49;;;;;;;17.33;14.23;;;;;;;;;;4999265;28;89899;-77
2022/10/01 06:45:22;;;;;;;16.50;13.85;;;;;;;;;;4999403;28;92083;-77
2022/10/01 06:47:55;;;;;;;19.98;13.48;;;;;;;;;;4998350;28;90676;-77
2022/10/01 06:50:22;;;;;;;16.83;12.95;;;;;;;;;;4999271;28;89413;-77
2022/10/01 06:52:49;;;;;;;16.55;13.82;;;;;;;;;;4999115;28;91123;-77
2022/10/01 06:55:16;;;;;;;14.43;12.60;;;;;;;;;;5001062;28;90170;-77
2022/10/01 06:57:43;;;;;;;8.55;7.28;;;;;;;;;;4998743;28;90959;-76
2022/10/01 07:00:10;;;;;;;19.33;12.38;;;;;;;;;;4997733;28;88050;-77
2022/10/01 07:02:37;;;;;;;18.13;11.32;;;;;;;;;;4997870;28;89255;-77
2022/10/01 07:05:03;;;;;;;15.07;10.75;;;;;;;;;;4998394;28;90704;-77
2022/10/01 07:07:30;;;;;;;12.63;10.68;;;;;;;;;;4999074;28;90472;-83
2022/10/01 07:09:59;;;;;;;13.25;10.00;;;;;;;;;;4997964;28;88862;-79
2022/10/01 07:12:26;;;;;;;17.35;9.75;;;;;;;;;;4998822;28;90887;-76
2022/10/01 07:14:53;;;;;;;18.25;10.45;;;;;;;;;;4995673;28;89672;-77
2022/10/01 07:17:19;;;;;;;11.70;9.82;;;;;;;;;;4992514;28;89512;-77
2022/10/01 07:19:46;;;;;;;14.27;8.45;;;;;;;;;;4999591;28;89531;-76
2022/10/01 07:22:12;;;;;;;12.07;7.25;;;;;;;;;;4978847;28;88778;-75
2022/10/01 07:24:39;;;;;;;11.23;7.57;;;;;;;;;;4979758;28;88679;-75
2022/10/01 07:27:05;;;;;;;11.38;7.00;;;;;;;;;;4983483;28;88380;-76
2022/10/01 07:29:32;;;;;;;17.02;7.75;;;;;;;;;;4999050;28;88763;-76
2022/10/01 07:31:59;;;;;;;9.05;5.85;;;;;;;;;;4998663;28;88723;-76
2022/10/01 07:34:26;;;;;;;17.75;6.72;;;;;;;;;;4999307;28;88544;-76
2022/10/01 07:36:55;;;;;;;10.73;5.55;;;;;;;;;;4998369;28;89048;-76
2022/10/01 07:39:21;;;;;;;9.40;5.53;;;;;;;;;;5002940;28;90160;-74
2022/10/01 07:41:50;;;;;;;14.88;5.38;;;;;;;;;;4999381;28;89716;-74
2022/10/01 07:44:17;;;;;;;9.95;5.82;;;;;;;;;;4998140;28;88938;-74
2022/10/01 07:46:43;;;;;;;15.73;4.55;;;;;;;;;;4998639;28;88561;-74
2022/10/01 07:49:09;;;;;;;12.60;5.32;;;;;;;;;;4999010;28;89750;-74
2022/10/01 07:51:36;;;;;;;8.35;4.28;;;;;;;;;;4998489;28;88014;-74
2022/10/01 07:54:03;;;;;;;9.65;4.72;;;;;;;;;;4996585;28;89308;-74
2022/10/01 07:56:29;;;;;;;21.92;4.65;;;;;;;;;;4998961;28;88638;-73
2022/10/01 07:58:56;;;;;;;17.15;4.97;;;;;;;;;;4998329;28;88626;-74
2022/10/01 08:01:23;;;;;;;17.73;5.57;;;;;;;;;;5001220;28;90054;-74
2022/10/01 08:03:51;;;;;;;13.77;6.40;;;;;;;;;;4997779;28;88578;-74
2022/10/01 08:06:18;;;;;;;10.52;5.78;;;;;;;;;;4996360;28;89347;-74
2022/10/01 08:08:51;;;;;;;16.73;6.90;;;;;;;;;;4983526;28;88886;-74
2022/10/01 08:11:20;;;;;;;13.65;6.93;;;;;;;;;;4997883;28;88848;-76
2022/10/01 08:13:46;;;;;;;7.80;2.75;;;;;;;;;;4993299;28;90154;-73
2022/10/01 08:16:13;;;;;;;15.23;4.80;;;;;;;;;;4997176;28;88839;-73
2022/10/01 08:18:39;;;;;;;10.35;4.90;;;;;;;;;;4984222;28;88689;-73
2022/10/01 08:21:06;;;;;;;5.85;3.80;;;;;;;;;;4993356;28;89536;-72
2022/10/01 08:23:33;;;;;;;5.20;3.33;;;;;;;;;;4996713;28;89825;-74
2022/10/01 08:26:00;;;;;;;10.10;3.33;;;;;;;;;;4997452;28;89544;-75
2022/10/01 08:28:27;;;;;;;11.07;3.65;;;;;;;;;;4997741;28;89047;-74
2022/10/01 08:30:54;;;;;;;7.82;3.03;;;;;;;;;;4999202;28;88799;-74
2022/10/01 08:33:21;;;;;;;13.25;2.92;;;;;;;;;;4997342;28;89424;-74
2022/10/01 08:35:47;;;;;;;10.75;4.00;;;;;;;;;;4998056;28;89469;-74
2022/10/01 08:38:14;;;;;;;6.57;2.90;;;;;;;;;;4997798;28;89434;-74
2022/10/01 08:40:42;;;;;;;10.07;3.20;;;;;;;;;;4997477;28;89653;-74
2022/10/01 08:43:32;;;;;;;11.40;3.65;;;;;;;;;;5000822;28;89527;-74
2022/10/01 08:46:16;;;;;;;8.95;2.80;;;;;;;;;;4984948;28;89608;-75
2022/10/01 08:49:01;;;;;;;13.20;2.78;;;;;;;;;;4997620;28;89191;-74
2022/10/01 08:51:37;;;;;;;11.45;2.90;;;;;;;;;;4995909;28;88793;-75
2022/10/01 08:54:12;;;;;;;9.65;2.97;;;;;;;;;;4995648;28;89503;-75
2022/10/01 08:56:43;;;;;;;6.88;2.78;;;;;;;;;;4997128;28;89748;-75
2022/10/01 08:59:29;;;;;;;12.13;2.90;;;;;;;;;;4997895;28;89392;-75
2022/10/01 09:01:57;;;;;;;17.20;3.15;;;;;;;;;;4984962;28;89930;-75
2022/10/01 09:04:25;;;;;;;7.95;2.55;;;;;;;;;;4998086;28;89501;-75
2022/10/01 09:06:59;;;;;;;9.48;3.08;;;;;;;;;;4999708;28;89851;-74
2022/10/01 09:09:36;;;;;;;9.57;2.42;;;;;;;;;;4991809;28;88974;-76
2022/10/01 09:12:15;;;;;;;10.95;2.55;;;;;;;;;;4992857;28;88739;-77
2022/10/01 09:14:59;;;;;;;6.68;2.50;;;;;;;;;;4989595;28;89954;-76
2022/10/01 09:17:29;;;;;;;10.15;2.70;;;;;;;;;;4981510;28;89734;-76
2022/10/01 09:20:07;;;;;;;14.88;2.90;;;;;;;;;;4996263;28;88252;-77
2022/10/01 09:22:43;;;;;;;10.93;2.67;;;;;;;;;;4989709;28;89249;-79
2022/10/01 09:25:26;;;;;;;17.23;3.10;;;;;;;;;;4995097;28;88719;-78
2022/10/01 09:28:06;;;;;;;14.60;2.97;;;;;;;;;;4995825;28;89030;-77
2022/10/01 09:30:33;;;;;;;12.38;2.72;;;;;;;;;;5002986;28;89673;-78
2022/10/01 09:33:26;;;;;;;18.33;2.88;;;;;;;;;;4997313;28;89488;-77
2022/10/01 09:36:16;;;;;;;12.02;2.33;;;;;;;;;;4994060;28;89799;-76
2022/10/01 09:38:45;;;;;;;18.02;3.78;;;;;;;;;;4987728;28;90101;-76
2022/10/01 09:41:13;;;;;;;14.68;3.67;;;;;;;;;;4993643;28;91356;-76
2022/10/01 09:43:41;;;;;;;9.13;2.83;;;;;;;;;;4996083;28;89559;-75
2022/10/01 09:46:12;;;;;;;14.50;3.17;;;;;;;;;;5001061;28;89344;-76
2022/10/01 09:48:56;;;;;;;17.92;2.80;;;;;;;;;;5001001;28;88615;-75
2022/10/01 09:51:26;;;;;;;18.35;2.67;;;;;;;;;;4999998;28;89463;-76
2022/10/01 09:53:58;;;;;;;18.50;3.20;;;;;;;;;;5002482;28;90455;-77
2022/10/01 09:56:29;;;;;;;13.85;3.03;;;;;;;;;;5001088;28;89259;-76
2022/10/01 09:58:59;;;;;;;13.13;3.10;;;;;;;;;;4999024;28;91001;-77
2022/10/01 10:01:29;;;;;;;11.95;2.55;;;;;;;;;;5000452;28;88934;-77
2022/10/01 10:03:56;;;;;;;14.10;2.47;;;;;;;;;;5000642;28;89511;-77
2022/10/01 10:06:26;;;;;;;13.68;2.97;;;;;;;;;;4999013;28;89908;-76
2022/10/01 10:08:54;;;;;;;11.30;2.28;;;;;;;;;;5000466;28;88204;-78
2022/10/01 10:11:22;;;;;;;18.65;3.50;;;;;;;;;;4999021;28;89543;-75
2022/10/01 10:13:50;;;;;;;12.60;2.70;;;;;;;;;;5000457;28;89631;-77
2022/10/01 10:16:25;;;;;;;14.05;2.50;;;;;;;;;;5003319;28;88774;-75
2022/10/01 10:18:55;;;;;;;22.48;3.58;;;;;;;;;;4997651;28;89243;-74
2022/10/01 10:21:26;;;;;;;14.23;3.47;;;;;;;;;;5000950;28;89726;-74
2022/10/01 10:23:55;;;;;;;22.40;2.93;;;;;;;;;;4998824;28;89507;-74
2022/10/01 10:26:32;;;;;;;13.25;3.28;;;;;;;;;;4997873;28;89776;-74
2022/10/01 10:29:01;;;;;;;26.52;3.22;;;;;;;;;;4998489;28;91103;-74
2022/10/01 10:31:28;;;;;;;8.18;2.35;;;;;;;;;;4998114;28;89816;-74
2022/10/01 10:34:05;;;;;;;12.93;3.22;;;;;;;;;;4998108;28;88727;-76
2022/10/01 10:36:32;;;;;;;10.63;3.60;;;;;;;;;;4998007;28;88715;-75
2022/10/01 10:39:00;;;;;;;9.77;2.85;;;;;;;;;;5002575;28;88104;-75
2022/10/01 10:41:27;;;;;;;12.23;2.85;;;;;;;;;;4999229;28;88887;-75
2022/10/01 10:43:56;;;;;;;12.88;3.40;;;;;;;;;;4999684;28;89655;-75
2022/10/01 10:46:27;;;;;;;13.32;2.88;;;;;;;;;;4998884;28;89739;-74
2022/10/01 10:48:57;;;;;;;12.45;3.47;;;;;;;;;;4996675;28;88090;-77
2022/10/01 10:51:26;;;;;;;12.10;2.90;;;;;;;;;;4998765;28;89622;-77
2022/10/01 10:53:52;;;;;;;12.63;2.35;;;;;;;;;;4998793;28;89788;-75
2022/10/01 10:56:21;;;;;;;12.82;2.53;;;;;;;;;;4999599;28;88181;-76
2022/10/01 10:58:48;;;;;;;13.55;3.35;;;;;;;;;;5002861;28;89575;-74
2022/10/01 11:01:17;;;;;;;16.45;2.63;;;;;;;;;;4999281;28;89362;-76
2022/10/01 11:03:48;;;;;;;10.55;2.35;;;;;;;;;;4999899;28;88941;-76
2022/10/01 11:06:17;;;;;;;10.38;2.40;;;;;;;;;;4999409;28;88826;-76
2022/10/01 11:08:44;;;;;;;8.35;2.30;;;;;;;;;;4995993;28;89804;-78
2022/10/01 11:11:31;;;;;;;9.40;2.00;;;;;;;;;;4998252;28;91083;-74
2022/10/01 11:14:15;;;;;;;11.13;2.40;;;;;;;;;;4999586;28;90058;-75
2022/10/01 11:17:16;;;;;;;11.52;2.47;;;;;;;;;;4997753;28;88935;-75
2022/10/01 11:19:50;;;;;;;8.50;2.15;;;;;;;;;;4999763;28;89477;-76
2022/10/01 11:22:20;;;;;;;9.95;2.30;;;;;;;;;;4999955;28;90021;-76
2022/10/01 11:24:54;;;;;;;13.52;2.70;;;;;;;;;;4999657;28;89546;-76
2022/10/01 11:27:39;;;;;;;11.80;2.45;;;;;;;;;;4999924;28;89632;-75
2022/10/01 11:30:12;;;;;;;15.98;2.58;;;;;;;;;;4998375;28;88222;-76
2022/10/01 11:32:41;;;;;;;14.82;3.08;;;;;;;;;;4999609;28;88767;-76
2022/10/01 11:35:18;;;;;;;15.85;3.13;;;;;;;;;;4998404;28;90313;-76
2022/10/01 11:37:46;;;;;;;16.48;2.88;;;;;;;;;;4998716;28;87955;-76
2022/10/01 11:40:39;;;;;;;10.05;2.65;;;;;;;;;;4998082;28;89736;-76
2022/10/01 11:43:05;;;;;;;;;;;;;;;;;;4981834;28;89690;-76
2022/10/01 11:45:37;;;;;;;10.98;2.53;;;;;;;;;;5002159;28;116552;-76
2022/10/01 11:48:06;;;;;;;18.47;2.50;;;;;;;;;;4999135;28;89885;-76
2022/10/01 11:50:34;;;;;;;10.95;2.15;;;;;;;;;;4998485;28;88925;-76
2022/10/01 11:53:17;;;;;;;13.88;3.40;;;;;;;;;;4999226;28;89091;-76
2022/10/01 11:58:51;;;;;;;4.13;1.77;;;;;;;;;;4998156;28;88642;-75
2022/10/01 12:01:26;;;;;;;16.23;2.55;;;;;;;;;;4997642;28;88774;-75
2022/10/01 12:03:53;;;;;;;11.73;3.13;;;;;;;;;;4997578;28;89318;-75
2022/10/01 12:06:22;;;;;;;7.47;2.15;;;;;;;;;;4998972;28;89698;-75
2022/10/01 12:08:57;;;;;;;9.45;2.45;;;;;;;;;;5001951;28;89569;-74
2022/10/01 12:11:27;;;;;;;13.82;2.60;;;;;;;;;;4998212;28;88857;-74
2022/10/01 12:14:02;;;;;;;12.40;3.40;;;;;;;;;;4998101;28;91122;-74
2022/10/01 12:16:28;;;;;;;12.00;2.17;;;;;;;;;;4998695;28;89734;-74
2022/10/01 12:18:55;;;;;;;15.95;3.00;;;;;;;;;;4998581;28;88629;-76
2022/10/01 12:21:24;;;;;;;14.65;2.80;;;;;;;;;;4999032;28;88770;-75
2022/10/01 12:23:54;;;;;;;8.23;2.10;;;;;;;;;;4998588;28;89862;-76
2022/10/01 12:26:33;;;;;;;13.00;2.85;;;;;;;;;;4997388;28;88760;-76
2022/10/01 12:29:15;;;;;;;15.90;2.90;;;;;;;;;;4998348;28;90458;-75
2022/10/01 12:31:47;;;;;;;9.63;2.50;;;;;;;;;;4998812;28;89382;-76
2022/10/01 12:34:14;;;;;;;;;;;;;;;;;;4998579;28;88539;-76
2022/10/01 12:36:51;;;;;;;9.98;2.38;;;;;;;;;;4998871;28;119639;-76
2022/10/01 12:39:27;;;;;;;11.90;2.88;;;;;;;;;;4997437;28;88083;-76
2022/10/01 12:42:02;;;;;;;14.63;3.03;;;;;;;;;;4997838;28;89716;-75
2022/10/01 12:44:35;;;;;;;9.93;2.50;;;;;;;;;;4999093;28;89094;-76
2022/10/01 12:47:04;;;;;;;7.85;2.70;;;;;;;;;;4997326;28;88843;-77
2022/10/01 12:49:40;;;;;;;11.80;2.45;;;;;;;;;;4998648;28;89558;-74
2022/10/01 12:52:25;;;;;;;8.38;2.20;;;;;;;;;;4997507;28;90449;-74
2022/10/01 12:54:56;;;;;;;9.38;2.42;;;;;;;;;;4999633;28;88087;-74
2022/10/01 12:57:36;;;;;;;18.48;3.05;;;;;;;;;;4998074;28;90436;-74
2022/10/01 13:00:06;;;;;;;12.48;2.63;;;;;;;;;;4996822;28;88085;-74
2022/10/01 13:02:56;;;;;;;16.50;3.20;;;;;;;;;;4998013;28;91665;-74
2022/10/01 13:05:26;;;;;;;12.32;3.13;;;;;;;;;;4996038;28;90038;-74
2022/10/01 13:07:58;;;;;;;13.43;3.05;;;;;;;;;;4997192;28;89248;-73
2022/10/01 13:10:46;;;;;;;16.15;2.75;;;;;;;;;;4998299;28;91345;-73
2022/10/01 13:13:20;;;;;;;17.17;2.83;;;;;;;;;;4996857;28;89165;-74
2022/10/01 13:15:48;;;;;;;12.32;2.72;;;;;;;;;;5000190;28;89156;-74
2022/10/01 13:18:34;;;;;;;12.82;3.28;;;;;;;;;;4996642;28;90501;-74
2022/10/01 13:21:21;;;;;;;10.57;2.83;;;;;;;;;;4997046;28;89473;-74
2022/10/01 13:23:52;;;;;;;8.48;2.42;;;;;;;;;;4997077;28;87942;-74
2022/10/01 13:26:30;;;;;;;13.30;2.90;;;;;;;;;;4997397;28;90103;-74
2022/10/01 13:29:01;;;;;;;12.95;2.65;;;;;;;;;;4996848;28;88847;-74
2022/10/01 13:31:38;;;;;;;12.80;4.70;;;;;;;;;;4997528;28;89389;-74
2022/10/01 13:34:25;;;;;;;7.60;2.90;;;;;;;;;;4997267;28;89682;-74
2022/10/01 13:36:51;;;;;;;14.63;2.50;;;;;;;;;;4997002;28;88992;-74
2022/10/01 13:39:21;;;;;;;15.90;2.80;;;;;;;;;;5000300;28;88799;-73
2022/10/01 13:41:49;;;;;;;18.13;3.17;;;;;;;;;;4997710;28;89328;-74
2022/10/01 13:44:22;;;;;;;13.48;2.90;;;;;;;;;;4996269;28;88650;-74
2022/10/01 13:46:50;;;;;;;14.82;2.67;;;;;;;;;;4996090;28;90047;-74
2022/10/01 13:49:23;;;;;;;17.83;3.05;;;;;;;;;;4995570;28;88934;-74
2022/10/01 13:51:52;;;;;;;8.70;2.53;;;;;;;;;;4995031;28;89492;-74
2022/10/01 13:54:38;;;;;;;14.32;3.47;;;;;;;;;;4996661;28;89669;-73
2022/10/01 13:57:41;;;;;;;14.55;3.03;;;;;;;;;;4991359;28;88846;-74
2022/10/01 14:00:10;;;;;;;12.63;2.97;;;;;;;;;;4972135;28;89446;-74
2022/10/01 14:02:38;;;;;;;10.95;3.45;;;;;;;;;;4992717;28;89330;-73
2022/10/01 14:05:25;;;;;;;13.27;2.42;;;;;;;;;;4996220;28;88930;-73
2022/10/01 14:07:55;;;;;;;12.18;3.45;;;;;;;;;;4981591;28;88908;-73
2022/10/01 14:10:22;;;;;;;18.20;4.30;;;;;;;;;;4976240;28;88727;-73
2022/10/01 14:15:58;;;;;;;9.65;2.70;;;;;;;;;;4989108;28;89707;-73
2022/10/01 14:18:36;;;;;;;8.98;2.92;;;;;;;;;;4990308;28;88966;-73
2022/10/01 14:21:16;;;;;;;12.68;3.05;;;;;;;;;;4992511;28;89417;-74
2022/10/01 14:23:49;;;;;;;6.00;2.05;;;;;;;;;;4995639;28;89700;-73
2022/10/01 14:26:15;;;;;;;;;;;;;;;;;;4999437;28;88690;-76
2022/10/01 14:28:54;;;;;;;17.40;4.85;;;;;;;;;;5001042;28;118625;-74
2022/10/01 14:31:27;;;;;;;25.23;7.57;;;;;;;;;;4995636;28;88162;-73
2022/10/01 14:34:06;;;;;;;16.42;3.40;;;;;;;;;;4985800;28;90920;-74
2022/10/01 14:36:36;;;;;;;8.77;2.67;;;;;;;;;;4996446;28;90723;-72
2022/10/01 14:39:13;;;;;;;13.07;2.70;;;;;;;;;;4979816;28;88325;-74
2022/10/01 14:41:39;;;;;;;8.60;2.28;;;;;;;;;;4987851;28;88578;-74
2022/10/01 14:44:18;;;;;;;11.27;3.28;;;;;;;;;;4997596;28;88852;-73
2022/10/01 14:46:44;;;;;;;12.30;3.58;;;;;;;;;;4998911;28;88169;-73
2022/10/01 14:49:37;;;;;;;11.15;2.83;;;;;;;;;;5002130;28;89639;-73
2022/10/01 14:52:05;;;;;;;11.75;2.80;;;;;;;;;;4993416;28;87996;-73
2022/10/01 14:54:41;;;;;;;11.05;2.53;;;;;;;;;;4999580;28;88381;-73
2022/10/01 14:57:08;;;;;;;11.48;2.58;;;;;;;;;;4999203;28;88814;-74
2022/10/01 14:59:36;;;;;;;16.95;3.17;;;;;;;;;;4998970;28;88064;-73
2022/10/01 15:02:10;;;;;;;17.67;2.22;;;;;;;;;;4998339;28;88735;-72